PDT,Max TemperatureF,Mean TemperatureF,Min TemperatureF,Max Dew PointF,MeanDew PointF,Min DewpointF,Max Humidity, Mean Humidity, Min Humidity, Max Sea Level PressureIn, Mean Sea Level PressureIn, Min Sea Level PressureIn, Max VisibilityMiles, Mean VisibilityMiles, Min VisibilityMiles, Max Wind SpeedMPH, Mean Wind SpeedMPH, Max Gust SpeedMPH,PrecipitationIn, CloudCover, Events, WindDirDegrees
2013-5-1,64,50,37,33,27,23,63,43,21,30.59,30.53,30.41,10,10,10,13,6,,0.00,0,,132
2013-5-2,75,57,41,41,31,27,65,38,18,30.57,30.42,30.25,10,9,1,9,4,,0.00,0,,90
2013-5-3,75,63,53,44,38,34,60,43,26,30.28,30.21,30.14,10,10,10,13,6,,0.00,0,,141
2013-5-4,79,63,48,42,37,33,74,42,19,30.17,30.07,29.97,10,10,8,29,13,34,0.00,0,,52
2013-5-5,82,63,45,45,40,36,71,43,21,29.95,29.87,29.77,10,10,10,13,7,,0.00,0,,72
2013-5-6,86,70,55,48,42,35,60,40,16,29.86,29.79,29.69,10,9,1,9,5,,0.00,0,,119
2013-5-7,88,72,57,51,43,38,51,37,18,29.84,29.80,29.75,10,10,10,8,5,,0.00,0,,114
2013-5-8,86,73,60,55,48,43,62,44,27,29.99,29.93,29.86,10,10,10,13,8,,0.00,0,,173
2013-5-9,89,76,63,53,48,44,60,42,22,30.09,30.03,29.97,10,10,10,9,5,,0.00,0,,188
2013-5-10,93,77,63,51,45,41,51,32,17,30.12,30.07,30.02,10,10,10,12,5,,0.00,0,,104
2013-5-11,91,80,68,55,46,41,45,33,18,30.11,30.04,29.95,10,10,8,10,7,,0.00,0,,187
2013-5-12,86,78,66,53,49,43,51,39,29,30.03,29.99,29.95,10,10,10,13,7,,0.00,1,,225
2013-5-13,75,64,54,52,48,42,88,60,45,30.16,30.04,29.97,10,9,2,20,9,25,0.09,3,Rain,212
2013-5-14,68,58,50,42,36,21,74,48,18,30.20,30.13,30.05,10,10,10,9,7,,0.00,0,,218
2013-5-15,72,60,48,44,36,31,61,43,23,30.07,30.01,29.94,10,10,10,12,6,,0.00,2,Rain,213
2013-5-16,73,64,55,44,42,34,67,49,25,29.98,29.90,29.81,10,10,10,15,9,,0.00,3,,181
2013-5-17,69,60,53,45,43,39,69,52,35,30.02,29.93,29.88,10,10,10,20,14,24,0.00,5,,204
2013-5-18,70,60,50,48,40,33,72,53,26,30.19,30.09,30.02,10,10,10,22,12,32,0.00,5,Rain,203
2013-5-19,71,61,52,47,42,38,80,54,32,30.30,30.25,30.20,10,10,10,13,9,,0.01,5,Rain,182
2013-5-20,80,65,51,48,43,41,68,48,26,30.29,30.10,29.79,10,10,10,10,7,,0.00,1,,132
2013-5-21,66,54,45,48,43,36,93,63,41,29.88,29.76,29.69,10,10,4,21,10,31,0.26,3,Rain,193
2013-5-22,55,49,42,43,38,33,85,69,49,30.01,29.95,29.90,10,10,2,20,13,24,0.17,7,Rain,214
2013-5-23,66,52,39,42,36,30,89,56,27,30.03,29.99,29.94,10,10,10,9,6,,0.00,1,Rain,97
2013-5-24,63,54,46,45,41,35,87,67,35,30.03,30.01,29.96,10,10,8,15,8,16,0.08,5,Rain,190
2013-5-25,69,56,45,44,39,37,77,53,32,30.04,30.00,29.94,10,10,10,14,7,,0.00,1,,191
2013-5-26,64,55,46,49,45,40,77,62,52,29.98,29.95,29.91,10,10,10,14,5,,0.00,5,Rain,173
2013-5-27,69,57,48,53,47,41,87,67,42,29.99,29.87,29.77,10,10,8,18,8,26,0.03,4,Rain,163
2013-5-28,71,62,53,53,46,38,93,63,31,29.88,29.83,29.78,10,10,10,17,11,29,0.07,5,Rain,201
2013-5-29,64,57,50,51,47,43,89,76,56,29.95,29.79,29.68,10,9,2,23,7,32,0.24,6,Rain-Thunderstorm,184
2013-5-30,66,58,51,43,39,35,74,52,32,30.18,30.07,29.96,10,10,10,16,11,20,0.00,5,,209
2013-5-31,72,60,48,44,39,35,71,50,27,30.30,30.24,30.20,10,10,10,12,8,,0.00,0,,196